Accueil
METAR-TAF:

METAR-TAF

Aéroports :

Odessa, Ukraine

Aéroport international d'Odessa

latitude: 46-26N, longitude: 030-46E, altitude: 42 m

Observation

Le bulletin a été fait il y a 2 heures et 15 minutes, à 15:00 UTC
Vent 8 kt de est, variant entre nord-est et est/sud-est
Température 2°C
Humidité 60%
Pression 1023 hPa
Visibilité 10 km ou plus
pas de nuages en-dessous de 1500 mètres et pas de cumulonimbus.

METAR: UKOO 201500Z 09004MPS 050V120 CAVOK 02/M05 Q1023 R16/090060 NOSIG

Heure: 19:15 (17:15 UTC)

Prévision

Le bulletin a été fait il y a 6 heures et 10 minutes, à 11:05 UTC
Prévision valable du 20 à 12 UTC au 21 à 12 UTC
Vent 12 kt de est/nord-est avec des rafales jusqu'à 25 kt
Visibilité: 6000 m
Nuages épars à une hauteur de 700 ft
Nuages épars à une hauteur de 1700 ft, Cumulonimbus.

TAF: UKOO 201105Z 2012/2112 07006G13MPS 6000 SCT007 SCT017CB TX03/2111Z TNM02/2104Z

Observations et prévisions météorologiques de plus de 4000 aéroports (messages METAR et TAF).

Les stations disponibles sont représentées par des disques jaunes et rouges sur la carte.

Passer la souris dessus pour voir le nom de la station.

Cliquer dessus pour voir les observations et prévisions météorologiques.

Pour changer de carte: cliquez sur les boutons verts avec une croix noire pour zoomer, sur le bouton vert avec un tiret pour effectuer un zoom arrière, ou sur les flèches vertes pour les cartes adjacentes.


METAR-TAF: